createdAt,value
2023-03-19T00:01:26.641Z,96244.75
2023-03-19T00:04:25.458Z,96247.13
2023-03-19T00:07:22.297Z,96249.91
2023-03-19T00:10:19.178Z,96246.31
2023-03-19T00:13:16.488Z,96253.19
2023-03-19T00:16:13.357Z,96253.31
2023-03-19T00:19:10.409Z,96253.69
2023-03-19T00:22:07.383Z,96256.25
2023-03-19T00:25:04.677Z,96251.06
2023-03-19T00:28:01.616Z,96257.22
2023-03-19T00:30:58.525Z,96249.81
2023-03-19T00:33:58.037Z,96253.22
2023-03-19T00:36:56.313Z,96253.69
2023-03-19T00:39:53.136Z,96255.97
2023-03-19T00:42:49.959Z,96261.22
2023-03-19T00:45:47.836Z,96265.66
2023-03-19T00:48:44.673Z,96257.88
2023-03-19T00:51:43.950Z,96274.53
2023-03-19T00:54:41.433Z,96265.88
2023-03-19T00:57:38.241Z,96264.66
2023-03-19T01:00:38.029Z,96263.50
2023-03-19T01:03:35.961Z,96266.78
2023-03-19T01:06:32.946Z,96255.34
2023-03-19T01:09:29.806Z,96243.81
2023-03-19T01:12:26.679Z,96244.50
2023-03-19T01:15:23.500Z,96248.53
2023-03-19T01:18:20.652Z,96245.41
2023-03-19T01:21:17.737Z,96239.59
2023-03-19T01:24:14.582Z,96242.53
2023-03-19T01:27:11.792Z,96247.84
2023-03-19T01:30:09.548Z,96241.75
2023-03-19T01:33:06.710Z,96249.91
2023-03-19T01:36:05.463Z,96246.69
2023-03-19T01:39:02.582Z,96249.56
2023-03-19T01:42:03.185Z,96249.25
2023-03-19T01:45:03.143Z,96246.91
2023-03-19T01:48:00.859Z,96251.66
2023-03-19T01:50:59.596Z,96254.81
2023-03-19T01:54:02.479Z,96252.09
2023-03-19T01:57:07.257Z,96252.94
2023-03-19T02:00:08.137Z,96251.94
2023-03-19T02:03:06.292Z,96250.66
2023-03-19T02:06:03.447Z,96255.16
2023-03-19T02:09:00.502Z,96259.25
2023-03-19T02:11:57.802Z,96253.38
2023-03-19T02:14:54.863Z,96269.75
2023-03-19T02:17:51.672Z,96254.66
2023-03-19T02:21:06.996Z,96260.34
2023-03-19T02:24:22.141Z,96251.75
2023-03-19T02:27:19.701Z,96257.72
2023-03-19T02:30:28.641Z,96268.84
2023-03-19T02:33:25.892Z,96275.31
2023-03-19T02:36:23.452Z,96266.41
2023-03-19T02:39:38.102Z,96275.41
2023-03-19T02:42:35.414Z,96279.38
2023-03-19T02:45:32.727Z,96276.66
2023-03-19T02:48:29.617Z,96272.72
2023-03-19T02:51:26.441Z,96274.88
2023-03-19T02:54:23.359Z,96283.53
2023-03-19T02:57:20.491Z,96285.69
2023-03-19T03:00:18.799Z,96284.38
2023-03-19T03:03:16.207Z,96286.56
2023-03-19T03:06:13.915Z,96283.44
2023-03-19T03:09:12.703Z,96284.69
2023-03-19T03:12:09.835Z,96288.63
2023-03-19T03:15:08.584Z,96277.53
2023-03-19T03:18:06.155Z,96282.53
2023-03-19T03:21:03.733Z,96292.94
2023-03-19T03:24:01.222Z,96282.03
2023-03-19T03:26:58.082Z,96294.00
2023-03-19T03:29:54.878Z,96284.22
2023-03-19T03:32:51.990Z,96286.88
2023-03-19T03:35:48.866Z,96303.28
2023-03-19T03:38:46.036Z,96294.84
2023-03-19T03:41:42.875Z,96298.28
2023-03-19T03:44:39.682Z,96293.72
2023-03-19T03:47:37.291Z,96299.06
2023-03-19T03:50:34.301Z,96299.56
2023-03-19T03:53:31.722Z,96292.44
2023-03-19T03:56:28.626Z,96304.63
2023-03-19T03:59:25.931Z,96301.69
2023-03-19T04:02:23.166Z,96310.97
2023-03-19T04:05:20.062Z,96318.13
2023-03-19T04:08:17.216Z,96319.72
2023-03-19T04:11:14.359Z,96329.78
2023-03-19T04:14:11.178Z,96324.75
2023-03-19T04:17:08.143Z,96324.19
2023-03-19T04:20:06.547Z,96324.22
2023-03-19T04:23:03.472Z,96331.63
2023-03-19T04:26:06.890Z,96327.94
2023-03-19T04:29:04.567Z,96327.94
2023-03-19T04:32:01.581Z,96330.06
2023-03-19T04:34:58.599Z,96341.72
2023-03-19T04:37:55.428Z,96351.22
2023-03-19T04:40:52.646Z,96349.66
2023-03-19T04:43:49.494Z,96352.03
2023-03-19T04:46:46.459Z,96359.69
2023-03-19T04:49:43.366Z,96352.31
2023-03-19T04:52:40.236Z,96354.44
2023-03-19T04:55:37.163Z,96351.50
2023-03-19T04:58:34.414Z,96340.13
2023-03-19T05:01:31.450Z,96345.16
2023-03-19T05:04:28.318Z,96348.31
2023-03-19T05:07:25.180Z,96347.56
2023-03-19T05:10:22.017Z,96326.34
2023-03-19T05:13:21.502Z,96328.72
2023-03-19T05:16:18.663Z,96310.97
2023-03-19T05:19:16.334Z,96312.53
2023-03-19T05:22:13.155Z,96315.13
2023-03-19T05:25:10.051Z,96318.56
2023-03-19T05:28:08.293Z,96315.94
2023-03-19T05:31:05.418Z,96320.72
2023-03-19T05:34:02.306Z,96318.03
2023-03-19T05:36:59.136Z,96330.25
2023-03-19T05:39:55.968Z,96317.22
2023-03-19T05:42:52.775Z,96316.97
2023-03-19T05:45:52.996Z,96330.00
2023-03-19T05:48:51.540Z,96330.50
2023-03-19T05:51:48.401Z,96340.78
2023-03-19T05:54:49.237Z,96337.59
2023-03-19T05:57:45.986Z,96333.91
2023-03-19T06:00:42.968Z,96330.09
2023-03-19T06:03:39.856Z,96334.72
2023-03-19T06:06:36.707Z,96334.09
2023-03-19T06:09:33.805Z,96344.00
2023-03-19T06:12:31.165Z,96348.94
2023-03-19T06:15:28.012Z,96350.00
2023-03-19T06:18:24.944Z,96360.03
2023-03-19T06:21:21.961Z,96363.66
2023-03-19T06:24:19.198Z,96369.53
2023-03-19T06:27:16.236Z,96360.53
2023-03-19T06:30:13.797Z,96374.25
2023-03-19T06:33:10.676Z,96379.91
2023-03-19T06:36:07.871Z,96381.72
2023-03-19T06:39:04.696Z,96399.66
2023-03-19T06:42:01.784Z,96389.72
2023-03-19T06:44:58.757Z,96387.50
2023-03-19T06:47:56.130Z,96401.22
2023-03-19T06:50:52.964Z,96403.78
2023-03-19T06:53:49.806Z,96406.59
2023-03-19T06:56:47.036Z,96406.00
2023-03-19T06:59:43.857Z,96411.75
2023-03-19T07:02:40.939Z,96416.44
2023-03-19T07:05:37.890Z,96424.34
2023-03-19T07:08:34.754Z,96422.47
2023-03-19T07:11:33.207Z,96428.34
2023-03-19T07:14:32.062Z,96429.06
2023-03-19T07:17:28.865Z,96425.53
2023-03-19T07:20:25.900Z,96431.09
2023-03-19T07:23:22.811Z,96428.09
2023-03-19T07:26:19.760Z,96440.13
2023-03-19T07:29:17.684Z,96441.47
2023-03-19T07:32:14.714Z,96440.34
2023-03-19T07:35:11.680Z,96436.59
2023-03-19T07:38:08.518Z,96442.47
2023-03-19T07:41:05.544Z,96446.63
2023-03-19T07:44:02.420Z,96441.47
2023-03-19T07:46:59.243Z,96447.81
2023-03-19T07:49:56.624Z,96443.69
2023-03-19T07:52:53.443Z,96440.41
2023-03-19T07:55:50.503Z,96448.06
2023-03-19T07:58:47.369Z,96459.09
2023-03-19T08:01:44.229Z,96460.84
2023-03-19T08:04:41.965Z,96464.72
2023-03-19T08:07:39.039Z,96464.44
2023-03-19T08:10:38.152Z,96463.41
2023-03-19T08:13:35.338Z,96461.22
2023-03-19T08:16:32.274Z,96477.03
2023-03-19T08:19:29.162Z,96473.84
2023-03-19T08:22:26.221Z,96477.09
2023-03-19T08:25:23.599Z,96471.75
2023-03-19T08:28:20.461Z,96485.94
2023-03-19T08:31:17.346Z,96493.44
2023-03-19T08:34:14.320Z,96487.34
2023-03-19T08:37:11.242Z,96496.94
2023-03-19T08:40:09.806Z,96502.22
2023-03-19T08:43:07.328Z,96494.13
2023-03-19T08:46:05.963Z,96507.78
2023-03-19T08:49:03.097Z,96517.88
2023-03-19T08:51:59.926Z,96517.53
2023-03-19T08:54:56.752Z,96517.03
2023-03-19T08:57:53.632Z,96523.28
2023-03-19T09:00:50.934Z,96521.59
2023-03-19T09:03:47.947Z,96523.00
2023-03-19T09:06:45.229Z,96524.19
2023-03-19T09:09:43.865Z,96535.63
2023-03-19T09:12:40.670Z,96535.91
2023-03-19T09:15:37.667Z,96536.25
2023-03-19T09:18:34.960Z,96545.59
2023-03-19T09:21:31.921Z,96551.72
2023-03-19T09:24:28.768Z,96550.34
2023-03-19T09:27:25.645Z,96550.66
2023-03-19T09:30:22.573Z,96547.03
2023-03-19T09:33:21.527Z,96550.72
2023-03-19T09:36:18.423Z,96550.66
2023-03-19T09:39:15.323Z,96552.88
2023-03-19T09:42:42.862Z,96548.47
2023-03-19T09:45:39.866Z,96552.63
2023-03-19T09:48:47.384Z,96552.75
2023-03-19T09:52:16.764Z,96551.06
2023-03-19T09:55:23.818Z,96547.06
2023-03-19T09:58:33.127Z,96552.22
2023-03-19T10:01:37.279Z,96552.44
2023-03-19T10:05:00.958Z,96544.38
2023-03-19T10:08:45.691Z,96554.19
2023-03-19T10:11:45.828Z,96550.13
2023-03-19T10:15:04.258Z,96551.91
2023-03-19T10:18:05.458Z,96543.38
2023-03-19T10:21:16.313Z,96547.28
2023-03-19T10:24:22.816Z,96552.16
2023-03-19T10:27:23.739Z,96545.41
2023-03-19T10:30:21.473Z,96553.69
2023-03-19T10:33:26.183Z,96550.72
2023-03-19T10:36:31.437Z,96548.03
2023-03-19T10:39:30.691Z,96543.81
2023-03-19T10:42:43.630Z,96535.16
2023-03-19T10:45:40.862Z,96539.59
2023-03-19T10:48:45.673Z,96543.66
2023-03-19T10:51:48.995Z,96537.34
2023-03-19T10:54:46.461Z,96533.78
2023-03-19T10:57:48.772Z,96522.69
2023-03-19T11:00:56.142Z,96525.88
2023-03-19T11:03:58.211Z,96516.84
2023-03-19T11:07:01.912Z,96514.78
2023-03-19T11:09:58.850Z,96514.03
2023-03-19T11:13:07.360Z,96522.44
2023-03-19T11:16:05.802Z,96520.22
2023-03-19T11:19:02.657Z,96512.09
2023-03-19T11:22:23.071Z,96513.66
2023-03-19T11:25:42.187Z,96509.84
2023-03-19T11:28:43.002Z,96507.22
2023-03-19T11:32:22.203Z,96503.06
2023-03-19T11:35:57.608Z,96505.25
2023-03-19T11:39:27.285Z,96494.28
2023-03-19T11:42:36.077Z,96495.44
2023-03-19T11:46:08.110Z,96489.47
2023-03-19T11:49:49.692Z,96488.16
2023-03-19T11:53:31.906Z,96485.00
2023-03-19T11:56:50.260Z,96490.00
2023-03-19T12:00:12.354Z,96485.38
2023-03-19T12:03:44.929Z,96486.69
2023-03-19T12:07:16.462Z,96483.44
2023-03-19T12:10:44.797Z,96475.09
2023-03-19T12:14:08.121Z,96474.34
2023-03-19T12:17:44.664Z,96468.19
2023-03-19T12:20:54.362Z,96466.56
2023-03-19T12:24:29.844Z,96455.09
2023-03-19T12:27:40.904Z,96456.34
2023-03-19T12:31:00.568Z,96452.56
2023-03-19T12:34:31.116Z,96455.66
2023-03-19T12:37:55.198Z,96446.53
2023-03-19T12:41:13.159Z,96442.09
2023-03-19T12:44:21.889Z,96437.06
2023-03-19T12:47:31.310Z,96432.66
2023-03-19T12:50:31.285Z,96437.16
2023-03-19T12:53:47.149Z,96429.06
2023-03-19T12:56:57.066Z,96425.81
2023-03-19T13:00:32.800Z,96424.44
2023-03-19T13:03:59.230Z,96421.59
2023-03-19T13:07:07.376Z,96421.22
2023-03-19T13:10:16.203Z,96425.09
2023-03-19T13:13:42.863Z,96421.78
2023-03-19T13:17:07.316Z,96414.19
2023-03-19T13:20:44.260Z,96428.94
2023-03-19T13:23:45.384Z,96413.19
2023-03-19T13:26:43.843Z,96402.97
2023-03-19T13:30:01.899Z,96401.03
2023-03-19T13:33:12.925Z,96402.25
2023-03-19T13:36:15.033Z,96405.03
2023-03-19T13:39:28.222Z,96396.97
2023-03-19T13:42:42.178Z,96392.81
2023-03-19T13:45:39.228Z,96391.03
2023-03-19T13:48:39.148Z,96393.38
2023-03-19T13:51:36.619Z,96385.28
2023-03-19T13:54:38.292Z,96390.78
2023-03-19T13:57:36.142Z,96389.63
2023-03-19T14:00:45.184Z,96384.16
2023-03-19T14:03:58.702Z,96387.53
2023-03-19T14:07:19.996Z,96381.03
2023-03-19T14:10:31.203Z,96376.84
2023-03-19T14:13:37.926Z,96388.13
2023-03-19T14:16:46.508Z,96374.28
2023-03-19T14:19:43.496Z,96380.97
2023-03-19T14:23:06.417Z,96375.69
2023-03-19T14:26:23.440Z,96362.94
2023-03-19T14:29:24.833Z,96364.16
2023-03-19T14:32:31.903Z,96365.16
2023-03-19T14:35:32.317Z,96363.00
2023-03-19T14:38:47.714Z,96369.91
2023-03-19T14:41:48.913Z,96370.38
2023-03-19T14:45:14.546Z,96357.53
2023-03-19T14:49:02.750Z,96365.47
2023-03-19T14:52:10.390Z,96365.63
2023-03-19T14:55:14.618Z,96371.38
2023-03-19T14:58:12.930Z,96375.69
2023-03-19T15:01:09.834Z,96382.19
2023-03-19T15:04:11.029Z,96380.03
2023-03-19T15:07:21.948Z,96382.31
2023-03-19T15:10:22.215Z,96375.34
2023-03-19T15:13:54.002Z,96368.78
2023-03-19T15:17:19.000Z,96366.13
2023-03-19T15:20:22.809Z,96369.03
2023-03-19T15:23:27.455Z,96379.91
2023-03-19T15:26:34.244Z,96382.75
2023-03-19T15:29:37.867Z,96375.50
2023-03-19T15:33:10.524Z,96365.88
2023-03-19T15:36:21.893Z,96372.50
2023-03-19T15:39:22.581Z,96368.09
2023-03-19T15:42:20.611Z,96371.84
2023-03-19T15:45:22.154Z,96371.38
2023-03-19T15:48:42.536Z,96365.50
2023-03-19T15:51:41.637Z,96369.44
2023-03-19T15:54:39.001Z,96372.16
2023-03-19T15:57:39.393Z,96370.72
2023-03-19T16:00:41.367Z,96373.69
2023-03-19T16:03:55.259Z,96368.97
2023-03-19T16:06:52.711Z,96372.88
2023-03-19T16:09:49.700Z,96373.69
2023-03-19T16:12:49.888Z,96369.19
2023-03-19T16:15:59.932Z,96369.03
2023-03-19T16:18:59.115Z,96376.13
2023-03-19T16:21:56.875Z,96377.97
2023-03-19T16:24:55.715Z,96378.75
2023-03-19T16:27:52.897Z,96384.44
2023-03-19T16:30:51.106Z,96391.38
2023-03-19T16:33:51.863Z,96395.31
2023-03-19T16:36:48.762Z,96398.78
2023-03-19T16:39:58.711Z,96403.50
2023-03-19T16:43:05.905Z,96402.28
2023-03-19T16:46:12.781Z,96399.88
2023-03-19T16:49:09.613Z,96413.13
2023-03-19T16:52:13.387Z,96412.06
2023-03-19T16:55:25.473Z,96423.38
2023-03-19T16:58:36.038Z,96426.91
2023-03-19T17:01:32.959Z,96437.69
2023-03-19T17:04:29.790Z,96433.91
2023-03-19T17:07:26.622Z,96433.13
2023-03-19T17:10:28.570Z,96436.66
2023-03-19T17:13:29.784Z,96440.81
2023-03-19T17:16:27.909Z,96444.94
2023-03-19T17:19:32.233Z,96432.72
2023-03-19T17:22:29.310Z,96441.31
2023-03-19T17:25:26.194Z,96446.72
2023-03-19T17:28:24.402Z,96447.84
2023-03-19T17:31:33.334Z,96457.25
2023-03-19T17:34:31.994Z,96465.66
2023-03-19T17:37:30.921Z,96467.16
2023-03-19T17:40:28.276Z,96475.97
2023-03-19T17:43:25.557Z,96475.38
2023-03-19T17:46:26.113Z,96482.22
2023-03-19T17:49:30.012Z,96485.19
2023-03-19T17:52:26.888Z,96491.81
2023-03-19T17:55:29.824Z,96495.97
2023-03-19T17:58:26.769Z,96491.72
2023-03-19T18:01:28.118Z,96499.81
2023-03-19T18:04:25.071Z,96499.91
2023-03-19T18:07:22.166Z,96499.25
2023-03-19T18:10:23.107Z,96505.06
2023-03-19T18:13:19.984Z,96513.69
2023-03-19T18:16:25.825Z,96517.25
2023-03-19T18:19:31.510Z,96521.38
2023-03-19T18:22:29.098Z,96521.47
2023-03-19T18:25:28.041Z,96527.53
2023-03-19T18:28:25.080Z,96521.34
2023-03-19T18:31:25.619Z,96527.88
2023-03-19T18:34:22.469Z,96532.00
2023-03-19T18:37:19.639Z,96530.81
2023-03-19T18:40:23.685Z,96536.78
2023-03-19T18:43:20.964Z,96540.88
2023-03-19T18:46:27.997Z,96540.59
2023-03-19T18:49:27.159Z,96552.66
2023-03-19T18:52:23.974Z,96556.84
2023-03-19T18:55:25.021Z,96548.69
2023-03-19T18:58:27.832Z,96554.25
2023-03-19T19:01:25.734Z,96553.38
2023-03-19T19:04:22.607Z,96560.31
2023-03-19T19:07:19.490Z,96556.53
2023-03-19T19:10:16.654Z,96568.38
2023-03-19T19:13:24.733Z,96560.97
2023-03-19T19:16:30.897Z,96566.47
2023-03-19T19:19:27.920Z,96570.22
2023-03-19T19:22:24.780Z,96569.03
2023-03-19T19:25:24.750Z,96572.94
2023-03-19T19:28:27.740Z,96575.69
2023-03-19T19:31:28.723Z,96571.19
2023-03-19T19:34:25.518Z,96575.41
2023-03-19T19:37:23.499Z,96568.88
2023-03-19T19:40:26.544Z,96568.19
2023-03-19T19:43:27.386Z,96563.94
2023-03-19T19:46:24.599Z,96562.19
2023-03-19T19:49:22.394Z,96567.88
2023-03-19T19:52:20.406Z,96568.78
2023-03-19T19:55:17.323Z,96579.56
2023-03-19T19:58:31.540Z,96575.59
2023-03-19T20:01:28.423Z,96575.00
2023-03-19T20:04:25.642Z,96575.28
2023-03-19T20:07:22.805Z,96580.78
2023-03-19T20:10:21.080Z,96583.78
2023-03-19T20:13:33.554Z,96576.47
2023-03-19T20:16:30.473Z,96589.19
2023-03-19T20:19:27.501Z,96597.66
2023-03-19T20:22:24.362Z,96590.31
2023-03-19T20:25:24.414Z,96593.28
2023-03-19T20:28:32.423Z,96596.81
2023-03-19T20:31:31.567Z,96605.53
2023-03-19T20:34:38.864Z,96609.00
2023-03-19T20:37:36.374Z,96610.81
2023-03-19T20:40:48.886Z,96609.69
2023-03-19T20:43:46.379Z,96613.50
2023-03-19T20:46:43.260Z,96612.03
2023-03-19T20:49:40.140Z,96611.88
2023-03-19T20:52:36.955Z,96616.44
2023-03-19T20:55:36.832Z,96624.16
2023-03-19T20:58:36.997Z,96629.25
2023-03-19T21:01:33.925Z,96619.88
2023-03-19T21:04:31.678Z,96615.41
2023-03-19T21:07:35.822Z,96621.97
2023-03-19T21:10:44.166Z,96628.59
2023-03-19T21:13:41.343Z,96626.75
2023-03-19T21:16:38.825Z,96634.91
2023-03-19T21:19:37.181Z,96638.69
2023-03-19T21:22:34.872Z,96635.50
2023-03-19T21:25:32.978Z,96630.91
2023-03-19T21:28:36.271Z,96629.31
2023-03-19T21:31:33.493Z,96631.41
2023-03-19T21:34:30.567Z,96631.72
2023-03-19T21:37:27.382Z,96629.94
2023-03-19T21:40:30.863Z,96633.84
2023-03-19T21:43:42.763Z,96633.75
2023-03-19T21:46:39.728Z,96637.75
2023-03-19T21:49:36.557Z,96634.97
2023-03-19T21:52:45.749Z,96635.22
2023-03-19T21:55:52.396Z,96631.88
2023-03-19T21:58:52.130Z,96634.63
2023-03-19T22:01:49.157Z,96639.22
2023-03-19T22:04:45.993Z,96646.69
2023-03-19T22:07:42.833Z,96644.84
2023-03-19T22:10:40.514Z,96641.44
2023-03-19T22:13:37.623Z,96638.09
2023-03-19T22:16:34.612Z,96633.75
2023-03-19T22:19:31.452Z,96643.50
2023-03-19T22:22:29.070Z,96636.91
2023-03-19T22:25:33.307Z,96625.97
2023-03-19T22:28:34.514Z,96631.38
2023-03-19T22:31:32.269Z,96634.06
2023-03-19T22:34:29.155Z,96646.03
2023-03-19T22:37:29.463Z,96641.97
2023-03-19T22:40:26.494Z,96644.66
2023-03-19T22:43:36.313Z,96651.56
2023-03-19T22:46:33.933Z,96651.25
2023-03-19T22:49:31.476Z,96644.66
2023-03-19T22:52:29.103Z,96640.59
2023-03-19T22:55:25.991Z,96637.53
2023-03-19T22:58:24.206Z,96633.22
2023-03-19T23:01:21.234Z,96654.63
2023-03-19T23:04:32.215Z,96651.91
2023-03-19T23:07:28.998Z,96646.31
2023-03-19T23:10:30.043Z,96651.03
2023-03-19T23:13:27.009Z,96644.84
2023-03-19T23:16:25.207Z,96644.03
2023-03-19T23:19:35.154Z,96646.97
2023-03-19T23:22:32.054Z,96646.69
2023-03-19T23:25:29.841Z,96643.66
2023-03-19T23:28:34.317Z,96646.16
2023-03-19T23:31:31.964Z,96643.75
2023-03-19T23:34:28.913Z,96648.00
2023-03-19T23:37:25.981Z,96649.84
2023-03-19T23:40:30.160Z,96654.38
2023-03-19T23:43:28.935Z,96648.41
2023-03-19T23:46:25.842Z,96647.59
2023-03-19T23:49:32.211Z,96637.47
2023-03-19T23:52:29.163Z,96639.34
2023-03-19T23:55:27.020Z,96642.59
2023-03-19T23:58:29.791Z,96634.66
